This is the latest recevied weather packets stored in our database for station/object DL2DHM-13. If no packets are shown the sender has not sent any weather packets the latest 10 day(s).
| Time | Temp. | Humidity | Pressure | Rain* | Wind** | Luminosity | Snow |
|---|---|---|---|---|---|---|---|
| 1777644066 | 22.22° C | 36% | 1024.1 hPa | 0 mm | - | 635 W/m² | - |
| 1777643456 | 21.67° C | 38% | 1024.3 hPa | 0 mm | - | 649 W/m² | - |
| 1777643156 | 21.67° C | 39% | 1024.3 hPa | 0 mm | - | 656 W/m² | - |
| 1777642253 | 21.67° C | 41% | 1024.3 hPa | 0 mm | - | 684 W/m² | - |
| 1777641353 | 21.67° C | 39% | 1024.6 hPa | 0 mm | - | 705 W/m² | - |
| 1777640450 | 21.67° C | 41% | 1024.9 hPa | 0 mm | - | 719 W/m² | - |
| 1777639547 | 21.11° C | 42% | 1025.1 hPa | 0 mm | - | 737 W/m² | - |
| 1777636233 | 20° C | 41% | 1025.8 hPa | 0 mm | - | 773 W/m² | - |
| 1777635632 | 20° C | 43% | 1025.9 hPa | 0 mm | - | 779 W/m² | - |
| 1777635036 | 20.56° C | 43% | 1026 hPa | 0 mm | - | 782 W/m² | - |
| 1777634432 | 20° C | 43% | 1026 hPa | 0 mm | - | 780 W/m² | - |
| 1777632325 | 19.44° C | 46% | 1026.4 hPa | 0 mm | - | 796 W/m² | - |
| 1777631119 | 19.44° C | 44% | 1026.6 hPa | 0 mm | - | 752 W/m² | - |
| 1777630817 | 18.89° C | 45% | 1026.8 hPa | 0 mm | - | 749 W/m² | - |
| 1777629011 | 18.89° C | 45% | 1026.8 hPa | 0 mm | - | 717 W/m² | - |
| 1777626601 | 17.78° C | 47% | 1027.3 hPa | 0 mm | - | 659 W/m² | - |
| 1777623048 | 15.56° C | 53% | 1027.5 hPa | 0 mm | - | 427 W/m² | - |
| 1777622443 | 15.56° C | 53% | 1027.5 hPa | 0 mm | - | 420 W/m² | - |
| 1777621841 | 15° C | 54% | 1027.6 hPa | 0 mm | - | 431 W/m² | - |
| 1777619431 | 13.89° C | 55% | 1027.9 hPa | 0 mm | - | 360 W/m² | - |
| 1777619130 | 13.33° C | 56% | 1027.9 hPa | 0 mm | - | 366 W/m² | - |
| 1777618537 | 13.33° C | 58% | 1027.9 hPa | 0 mm | - | 366 W/m² | - |
| 1777618226 | 13.33° C | 60% | 1027.9 hPa | 0 mm | - | 360 W/m² | - |
| 1777617321 | 12.22° C | 63% | 1027.9 hPa | 0 mm | - | 325 W/m² | - |
| 1777616718 | 11.11° C | 67% | 1027.9 hPa | 0 mm | - | 299 W/m² | - |
* Rain latest hour (hover to see other rain measurements)
** Current wind speed in m/s (hover to see current wind gust speed)